Time;durP1;ratioP1;P1;durP2;ratioP2;P2;SDS_P1;SDS_P2;PMS_P1;PMS_P2;Temp;Humidity;BMP_temperature;BMP_pressure;BME280_temperature;BME280_humidity;BME280_pressure;Samples;Min_cycle;Max_cycle;Signal;HPM_P1;HPM_P2
2022/10/16 00:00:45;;;;;;;12.57;10.93;;;22.10;99.90;;;;;;5036134;28;20458;-49
2022/10/16 00:03:12;;;;;;;15.30;11.80;;;22.10;99.90;;;;;;5042986;28;20982;-45
2022/10/16 00:05:41;;;;;;;13.77;10.10;;;22.10;99.90;;;;;;5037945;28;20454;-49
2022/10/16 00:08:08;;;;;;;11.37;9.57;;;22.10;99.90;;;;;;5042702;28;20462;-45
2022/10/16 00:10:35;;;;;;;16.87;11.50;;;22.10;99.90;;;;;;5041744;28;20468;-51
2022/10/16 00:13:04;;;;;;;13.83;10.23;;;22.10;99.90;;;;;;5043806;28;20449;-46
2022/10/16 00:15:31;;;;;;;11.90;9.53;;;22.10;99.90;;;;;;5042062;28;20472;-49
2022/10/16 00:17:58;;;;;;;12.60;10.30;;;22.00;99.90;;;;;;5040841;28;20474;-45
2022/10/16 00:20:24;;;;;;;14.60;10.43;;;22.00;99.90;;;;;;5044004;28;20461;-48
2022/10/16 00:22:51;;;;;;;16.80;11.20;;;22.00;99.90;;;;;;5045414;28;20485;-49
2022/10/16 00:25:18;;;;;;;14.63;10.00;;;22.00;99.90;;;;;;5036681;28;21027;-45
2022/10/16 00:27:45;;;;;;;12.50;10.43;;;22.00;99.90;;;;;;5039034;28;20457;-48
2022/10/16 00:30:13;;;;;;;11.90;10.00;;;22.00;99.90;;;;;;5036029;28;20462;-49
2022/10/16 00:32:39;;;;;;;16.07;11.10;;;22.00;99.90;;;;;;5037062;28;20457;-49
2022/10/16 00:35:07;;;;;;;15.10;10.70;;;22.00;99.90;;;;;;5041919;28;21002;-46
2022/10/16 00:37:33;;;;;;;12.93;9.90;;;21.90;99.90;;;;;;5043017;28;20458;-49
2022/10/16 00:40:00;;;;;;;15.63;11.63;;;21.90;99.90;;;;;;5044795;28;20538;-47
2022/10/16 00:42:27;;;;;;;15.30;9.63;;;21.90;99.90;;;;;;5036977;28;21010;-50
2022/10/16 00:44:56;;;;;;;11.87;10.33;;;21.90;99.90;;;;;;5039826;28;20956;-48
2022/10/16 00:47:29;;;;;;;16.33;10.80;;;21.90;99.90;;;;;;5042311;28;20451;-47
2022/10/16 00:50:00;;;;;;;14.30;10.30;;;21.90;99.90;;;;;;5030808;28;20985;-42
2022/10/16 00:52:27;;;;;;;11.67;9.70;;;21.90;99.90;;;;;;5034874;28;20466;-48
2022/10/16 00:54:55;;;;;;;11.23;8.90;;;21.80;99.90;;;;;;5043708;28;20454;-50
2022/10/16 00:57:22;;;;;;;11.90;9.97;;;21.80;99.90;;;;;;5042233;28;20463;-49
2022/10/16 00:59:49;;;;;;;10.90;9.30;;;21.80;99.90;;;;;;5036952;28;20821;-48
2022/10/16 01:02:17;;;;;;;10.70;8.07;;;21.80;99.90;;;;;;5038925;28;20481;-48
2022/10/16 01:04:49;;;;;;;10.43;9.20;;;21.80;99.90;;;;;;5035019;28;20455;-49
2022/10/16 01:07:25;;;;;;;12.57;9.60;;;21.80;99.90;;;;;;5040824;28;20454;-47
2022/10/16 01:10:03;;;;;;;11.63;10.48;;;21.80;99.90;;;;;;5033435;28;20547;-45
2022/10/16 01:12:40;;;;;;;10.23;8.70;;;21.70;99.90;;;;;;5037327;28;20298;-50
2022/10/16 01:18:09;;;;;;;11.80;8.70;;;21.70;99.90;;;;;;5041363;28;20261;-45
2022/10/16 01:20:43;;;;;;;12.30;8.67;;;21.70;99.90;;;;;;5040169;28;20470;-49
2022/10/16 01:23:20;;;;;;;11.30;9.60;;;21.70;99.90;;;;;;5041135;28;20576;-50
2022/10/16 01:26:05;;;;;;;11.30;8.70;;;21.70;99.90;;;;;;5043296;28;20485;-48
2022/10/16 01:28:40;;;;;;;11.20;8.55;;;21.70;99.90;;;;;;5046508;28;20964;-48
2022/10/16 01:31:07;;;;;;;11.82;7.97;;;21.60;99.90;;;;;;5040783;28;20677;-48
2022/10/16 01:33:39;;;;;;;10.80;8.80;;;21.60;99.90;;;;;;5036230;28;20211;-47
2022/10/16 01:36:12;;;;;;;10.65;9.15;;;21.60;99.90;;;;;;5042967;28;20187;-46
2022/10/16 01:38:41;;;;;;;10.63;8.57;;;21.60;99.90;;;;;;5042619;28;20717;-48
2022/10/16 01:41:12;;;;;;;9.65;8.35;;;21.60;99.90;;;;;;5032853;28;20469;-46
2022/10/16 01:43:44;;;;;;;11.77;9.57;;;21.50;99.90;;;;;;5035391;28;20261;-51
2022/10/16 01:46:13;;;;;;;11.83;8.20;;;21.50;99.90;;;;;;5043657;28;20198;-45
2022/10/16 01:48:41;;;;;;;10.95;8.93;;;21.40;99.90;;;;;;5035138;28;20460;-48
2022/10/16 01:51:11;;;;;;;12.15;8.82;;;21.40;99.90;;;;;;5036002;28;20595;-49
2022/10/16 01:53:39;;;;;;;11.83;7.43;;;21.40;99.90;;;;;;5039068;28;20191;-46
2022/10/16 01:56:09;;;;;;;11.82;8.38;;;21.40;99.90;;;;;;5041919;28;20446;-47
2022/10/16 01:58:43;;;;;;;9.30;8.35;;;21.40;99.90;;;;;;5033641;28;20198;-48
2022/10/16 02:01:13;;;;;;;10.45;8.32;;;21.40;99.90;;;;;;5039660;28;20191;-50
2022/10/16 02:03:42;;;;;;;12.43;8.95;;;21.40;99.90;;;;;;5042358;28;20538;-49
2022/10/16 02:06:09;;;;;;;8.07;7.28;;;21.30;99.90;;;;;;5039960;28;20319;-49
2022/10/16 02:08:38;;;;;;;8.95;7.47;;;21.30;99.90;;;;;;5039750;28;20199;-45
2022/10/16 02:11:05;;;;;;;9.10;8.15;;;21.30;99.90;;;;;;5042690;28;20199;-48
2022/10/16 02:13:37;;;;;;;9.77;7.90;;;21.20;99.90;;;;;;5042351;28;20192;-44
2022/10/16 02:16:07;;;;;;;9.82;8.90;;;21.20;99.90;;;;;;5033358;28;20200;-48
2022/10/16 02:18:34;;;;;;;9.32;7.35;;;21.20;99.90;;;;;;5042432;28;20393;-48
2022/10/16 02:21:03;;;;;;;9.25;8.35;;;21.20;99.90;;;;;;5037284;28;20559;-45
2022/10/16 02:23:38;;;;;;;9.77;8.35;;;21.20;99.90;;;;;;5042224;28;20222;-47
2022/10/16 02:26:08;;;;;;;8.60;7.17;;;21.10;99.90;;;;;;5044292;28;20191;-50
2022/10/16 02:28:40;;;;;;;10.55;8.52;;;21.10;99.90;;;;;;5040426;28;20450;-49
2022/10/16 02:31:12;;;;;;;10.40;7.63;;;21.10;99.90;;;;;;5035523;28;20257;-49
2022/10/16 02:33:41;;;;;;;9.27;7.30;;;21.10;99.90;;;;;;5038513;28;20203;-52
2022/10/16 02:36:08;;;;;;;9.50;8.32;;;21.10;99.90;;;;;;5032578;28;20551;-48
2022/10/16 02:38:36;;;;;;;9.02;6.90;;;21.10;99.90;;;;;;5043473;28;20227;-51
2022/10/16 02:41:04;;;;;;;9.98;7.97;;;21.10;99.90;;;;;;5032626;28;20234;-49
2022/10/16 02:43:30;;;;;;;9.13;7.63;;;21.10;99.90;;;;;;5033820;28;20219;-47
2022/10/16 02:45:57;;;;;;;10.43;7.15;;;21.10;99.90;;;;;;5040424;28;20196;-51
2022/10/16 02:48:25;;;;;;;8.20;6.80;;;21.10;99.90;;;;;;5039414;28;20191;-51
2022/10/16 02:50:52;;;;;;;10.38;7.47;;;21.10;99.90;;;;;;5044557;28;20210;-46
2022/10/16 02:53:19;;;;;;;8.60;7.75;;;21.10;99.90;;;;;;5037978;28;20208;-46
2022/10/16 02:55:45;;;;;;;7.13;6.00;;;21.00;99.90;;;;;;5045544;28;20218;-52
2022/10/16 02:58:12;;;;;;;8.23;6.60;;;21.00;99.90;;;;;;5043731;28;20198;-47
2022/10/16 03:00:39;;;;;;;9.88;7.05;;;21.00;99.90;;;;;;5040715;28;20195;-48
2022/10/16 03:03:05;;;;;;;8.90;7.30;;;21.00;99.90;;;;;;5042796;28;20219;-50
2022/10/16 03:05:33;;;;;;;9.30;7.18;;;21.00;99.90;;;;;;5040175;28;20566;-46
2022/10/16 03:08:00;;;;;;;8.90;7.05;;;21.00;99.90;;;;;;5037879;28;20214;-52
2022/10/16 03:10:27;;;;;;;10.52;7.13;;;21.00;99.90;;;;;;5039686;28;20719;-47
2022/10/16 03:12:54;;;;;;;9.93;7.13;;;21.00;99.90;;;;;;5038468;28;20199;-48
2022/10/16 03:15:21;;;;;;;9.45;7.65;;;21.00;99.90;;;;;;5035512;28;20681;-49
2022/10/16 03:17:47;;;;;;;7.32;6.60;;;21.00;99.90;;;;;;5042203;28;20219;-49
2022/10/16 03:20:14;;;;;;;6.88;6.15;;;20.90;99.90;;;;;;5039890;28;20203;-49
2022/10/16 03:22:43;;;;;;;12.20;7.32;;;20.90;99.90;;;;;;5044519;28;20704;-45
2022/10/16 03:25:09;;;;;;;7.47;6.30;;;20.90;99.90;;;;;;5035511;28;20199;-48
2022/10/16 03:27:36;;;;;;;8.48;6.78;;;20.80;99.90;;;;;;5038909;28;20215;-50
2022/10/16 03:30:03;;;;;;;6.70;6.00;;;21.40;99.90;;;;;;5044993;28;20199;-50
2022/10/16 03:32:30;;;;;;;7.60;6.00;;;21.90;99.90;;;;;;5037013;28;20669;-45
2022/10/16 03:34:57;;;;;;;7.93;6.43;;;22.20;99.90;;;;;;5034654;28;20548;-49
2022/10/16 03:37:24;;;;;;;7.97;5.57;;;22.30;99.90;;;;;;5043256;28;20461;-45
2022/10/16 03:39:52;;;;;;;6.30;5.40;;;22.40;99.90;;;;;;5041063;28;20453;-45
2022/10/16 03:42:19;;;;;;;6.20;5.57;;;22.60;99.90;;;;;;5038142;28;20625;-48
2022/10/16 03:44:45;;;;;;;7.70;6.33;;;22.80;99.90;;;;;;5043530;28;22429;-45
2022/10/16 03:47:12;;;;;;;6.47;5.87;;;22.80;99.90;;;;;;5037666;28;20825;-48
2022/10/16 03:49:39;;;;;;;6.33;5.10;;;22.80;99.90;;;;;;5048606;28;20525;-47
2022/10/16 03:52:05;;;;;;;6.93;6.23;;;22.70;99.90;;;;;;5044422;28;20940;-46
2022/10/16 03:54:32;;;;;;;6.67;5.60;;;22.70;99.90;;;;;;5043119;28;20879;-49
2022/10/16 03:57:00;;;;;;;6.30;5.70;;;22.60;99.90;;;;;;5041434;28;20449;-51
2022/10/16 03:59:27;;;;;;;7.03;6.33;;;22.50;99.90;;;;;;5045220;28;20503;-50
2022/10/16 04:01:53;;;;;;;6.17;5.50;;;22.40;99.90;;;;;;5036234;28;20461;-47
2022/10/16 04:04:20;;;;;;;6.70;5.70;;;22.40;99.90;;;;;;5041489;28;21079;-48
2022/10/16 04:06:47;;;;;;;8.07;6.97;;;22.40;99.90;;;;;;5041923;28;20473;-52
2022/10/16 04:09:14;;;;;;;8.10;5.60;;;22.30;99.90;;;;;;5048695;28;20983;-45
2022/10/16 04:11:40;;;;;;;7.73;5.90;;;22.30;99.90;;;;;;5048901;28;20465;-42
2022/10/16 04:14:08;;;;;;;7.30;5.73;;;22.20;99.90;;;;;;5045952;28;20469;-51
2022/10/16 04:16:35;;;;;;;5.43;4.93;;;22.20;99.90;;;;;;5033194;28;20473;-43
2022/10/16 04:19:02;;;;;;;6.10;5.50;;;22.20;99.90;;;;;;5039930;28;20450;-44
2022/10/16 04:21:28;;;;;;;7.70;6.50;;;22.10;99.90;;;;;;5037865;28;20833;-48
2022/10/16 04:23:55;;;;;;;7.40;5.70;;;22.10;99.90;;;;;;5043568;28;20492;-50
2022/10/16 04:26:22;;;;;;;7.07;5.20;;;22.10;99.90;;;;;;5039720;28;20466;-47
2022/10/16 04:28:48;;;;;;;4.80;4.30;;;22.10;99.90;;;;;;5046094;28;20461;-52
2022/10/16 04:31:16;;;;;;;5.83;5.30;;;22.00;99.90;;;;;;5039517;28;20462;-50
2022/10/16 04:33:43;;;;;;;5.87;5.37;;;22.00;99.90;;;;;;5040449;28;20457;-46
2022/10/16 04:36:10;;;;;;;5.97;5.10;;;22.00;99.90;;;;;;5042744;28;20465;-46
2022/10/16 04:38:37;;;;;;;6.03;5.43;;;22.00;99.90;;;;;;5044591;28;20457;-48
2022/10/16 04:41:04;;;;;;;5.67;4.83;;;22.00;99.90;;;;;;5042243;28;20556;-48
2022/10/16 04:43:31;;;;;;;5.43;4.40;;;21.90;99.90;;;;;;5032773;28;20568;-46
2022/10/16 04:45:57;;;;;;;6.50;5.80;;;21.90;99.90;;;;;;5043811;28;20466;-48
2022/10/16 04:48:26;;;;;;;6.13;5.53;;;21.90;99.90;;;;;;5039447;28;20479;-46
2022/10/16 04:50:52;;;;;;;6.03;5.37;;;21.90;99.90;;;;;;5033740;28;20465;-47
2022/10/16 04:53:19;;;;;;;6.07;5.47;;;22.00;99.90;;;;;;5034691;28;20537;-49
2022/10/16 04:55:46;;;;;;;5.20;4.70;;;22.00;99.90;;;;;;5037138;28;20462;-52
2022/10/16 04:58:13;;;;;;;4.63;4.20;;;22.00;99.90;;;;;;5042726;28;20462;-50
2022/10/16 05:00:39;;;;;;;5.57;5.07;;;22.00;99.90;;;;;;5034890;28;20573;-50
2022/10/16 05:03:08;;;;;;;5.57;5.00;;;22.00;99.90;;;;;;5041038;28;20489;-49
2022/10/16 05:05:36;;;;;;;5.07;4.20;;;22.10;99.90;;;;;;5046399;28;20559;-46
2022/10/16 05:08:03;;;;;;;6.00;4.70;;;22.10;99.90;;;;;;5041868;28;20956;-49
2022/10/16 05:10:30;;;;;;;5.47;4.97;;;22.10;99.90;;;;;;5035019;28;20458;-50
2022/10/16 05:12:57;;;;;;;5.40;4.57;;;22.20;99.90;;;;;;5040089;28;20468;-47
2022/10/16 05:15:24;;;;;;;7.23;5.40;;;22.20;99.90;;;;;;5037253;28;20833;-52
2022/10/16 05:17:53;;;;;;;5.33;4.70;;;22.20;99.90;;;;;;5046661;28;20898;-49
2022/10/16 05:20:20;;;;;;;5.27;4.77;;;22.30;99.90;;;;;;5042667;28;20564;-49
2022/10/16 05:22:48;;;;;;;5.33;4.87;;;22.30;99.90;;;;;;5043668;28;20480;-46
2022/10/16 05:25:15;;;;;;;4.57;4.10;;;22.30;99.90;;;;;;5032588;28;20470;-44
2022/10/16 05:27:42;;;;;;;5.13;4.70;;;22.30;99.90;;;;;;5040027;28;20456;-50
2022/10/16 05:30:09;;;;;;;4.40;4.00;;;22.40;99.90;;;;;;5037836;28;20465;-52
2022/10/16 05:32:36;;;;;;;4.40;4.00;;;22.40;99.90;;;;;;5035610;28;20860;-50
2022/10/16 05:35:02;;;;;;;4.00;3.70;;;22.40;99.90;;;;;;5043096;28;20457;-50
2022/10/16 05:37:29;;;;;;;4.40;4.00;;;22.40;99.90;;;;;;5043323;28;20463;-48
2022/10/16 05:39:57;;;;;;;4.30;3.90;;;22.40;99.90;;;;;;5039978;28;20833;-49
2022/10/16 05:42:24;;;;;;;3.67;3.37;;;22.40;99.90;;;;;;5036990;28;20469;-49
2022/10/16 05:44:50;;;;;;;4.77;4.37;;;22.40;99.90;;;;;;5045596;28;20465;-51
2022/10/16 05:47:17;;;;;;;5.30;4.10;;;22.40;99.90;;;;;;5039520;28;20457;-44
2022/10/16 05:49:44;;;;;;;5.27;4.00;;;22.40;99.90;;;;;;5038336;28;20449;-49
2022/10/16 05:52:10;;;;;;;4.37;3.97;;;22.30;99.90;;;;;;5040711;28;20457;-42
2022/10/16 05:54:37;;;;;;;4.40;4.00;;;22.30;99.90;;;;;;5033833;28;20469;-46
2022/10/16 05:57:06;;;;;;;4.73;3.77;;;22.30;99.90;;;;;;5038109;28;20810;-52
2022/10/16 05:59:33;;;;;;;4.60;3.97;;;22.30;99.90;;;;;;5034083;28;20489;-49
2022/10/16 06:02:00;;;;;;;4.50;4.10;;;22.30;99.90;;;;;;5034354;28;20462;-46
2022/10/16 06:04:27;;;;;;;4.63;3.93;;;22.30;99.90;;;;;;5038032;28;20485;-49
2022/10/16 06:06:54;;;;;;;4.20;3.80;;;22.30;99.90;;;;;;5037285;28;20462;-49
2022/10/16 06:09:20;;;;;;;5.07;4.17;;;22.30;99.90;;;;;;5041281;28;20460;-52
2022/10/16 06:11:47;;;;;;;4.27;3.87;;;22.30;99.90;;;;;;5039130;28;20463;-50
2022/10/16 06:14:15;;;;;;;5.13;4.20;;;22.30;99.90;;;;;;5036104;28;20462;-44
2022/10/16 06:16:42;;;;;;;4.77;4.37;;;22.30;99.90;;;;;;5039324;28;20482;-42
2022/10/16 06:19:09;;;;;;;6.13;5.37;;;22.30;99.90;;;;;;5040667;28;20969;-45
2022/10/16 06:21:36;;;;;;;6.50;4.60;;;22.30;99.90;;;;;;5043592;28;20898;-46
2022/10/16 06:24:03;;;;;;;8.60;5.60;;;22.30;99.90;;;;;;5039076;28;20984;-47
2022/10/16 06:26:31;;;;;;;7.27;5.67;;;22.30;99.90;;;;;;5041787;28;20555;-45
2022/10/16 06:28:59;;;;;;;6.33;5.60;;;22.30;99.90;;;;;;5047555;28;20460;-48
2022/10/16 06:31:30;;;;;;;6.50;5.57;;;22.30;99.90;;;;;;5038494;28;20465;-44
2022/10/16 06:33:58;;;;;;;6.73;5.87;;;22.30;99.90;;;;;;5043090;28;20865;-46
2022/10/16 06:36:25;;;;;;;5.83;5.30;;;22.30;99.90;;;;;;5048707;28;20479;-49
2022/10/16 06:38:52;;;;;;;7.27;5.33;;;22.30;99.90;;;;;;5046228;28;20464;-44
2022/10/16 06:41:22;;;;;;;6.50;5.80;;;22.30;99.90;;;;;;5040560;28;20471;-46
2022/10/16 06:43:48;;;;;;;6.17;5.57;;;22.30;99.90;;;;;;5047789;28;20477;-44
2022/10/16 06:46:17;;;;;;;6.30;5.67;;;22.40;99.90;;;;;;5047224;28;20461;-47
2022/10/16 06:48:46;;;;;;;6.33;5.73;;;22.40;99.90;;;;;;5047929;28;20453;-46
2022/10/16 06:51:14;;;;;;;6.10;5.40;;;22.40;99.90;;;;;;5040050;28;20535;-46
2022/10/16 06:53:43;;;;;;;7.03;6.10;;;22.40;99.90;;;;;;5043269;28;20477;-44
2022/10/16 06:56:10;;;;;;;7.07;4.90;;;22.50;99.90;;;;;;5039783;28;20469;-45
2022/10/16 06:58:37;;;;;;;5.27;4.77;;;22.50;99.90;;;;;;5040864;28;20476;-49
2022/10/16 07:01:04;;;;;;;6.20;5.60;;;22.50;99.90;;;;;;5043607;28;20531;-47
2022/10/16 07:03:31;;;;;;;6.10;4.90;;;22.50;99.90;;;;;;5045735;28;20496;-47
2022/10/16 07:06:03;;;;;;;6.63;5.70;;;22.50;99.90;;;;;;5042626;28;20504;-48
2022/10/16 07:08:32;;;;;;;5.57;5.00;;;22.50;99.90;;;;;;5044658;28;20493;-44
2022/10/16 07:11:00;;;;;;;6.57;5.67;;;22.50;99.90;;;;;;5042221;28;20972;-47
2022/10/16 07:13:27;;;;;;;6.27;5.13;;;22.50;99.90;;;;;;5046883;28;20528;-48
2022/10/16 07:15:54;;;;;;;7.00;5.80;;;22.50;99.90;;;;;;5045409;28;20470;-46
2022/10/16 07:18:20;;;;;;;5.70;5.20;;;22.50;99.90;;;;;;5045245;28;20461;-47
2022/10/16 07:20:47;;;;;;;5.50;4.97;;;22.60;99.90;;;;;;5045806;28;20821;-44
2022/10/16 07:23:15;;;;;;;6.23;5.60;;;22.50;99.90;;;;;;5035724;28;20478;-45
2022/10/16 07:25:42;;;;;;;6.07;5.47;;;22.50;99.90;;;;;;5035610;28;20545;-48
2022/10/16 07:28:08;;;;;;;5.30;4.47;;;22.60;99.90;;;;;;5034336;28;21049;-45
2022/10/16 07:30:37;;;;;;;5.77;4.70;;;22.60;99.90;;;;;;5034761;28;20457;-45
2022/10/16 07:33:04;;;;;;;6.90;5.30;;;22.60;99.90;;;;;;5034644;28;20540;-47
2022/10/16 07:35:30;;;;;;;6.20;5.60;;;22.60;99.90;;;;;;5037041;28;20512;-46
2022/10/16 07:37:57;;;;;;;7.20;5.30;;;22.60;99.90;;;;;;5035016;28;20476;-46
2022/10/16 07:40:26;;;;;;;5.90;4.37;;;22.60;99.90;;;;;;5035388;28;20808;-48
2022/10/16 07:42:53;;;;;;;5.87;5.27;;;22.60;99.90;;;;;;5042933;28;20446;-44
2022/10/16 07:45:20;;;;;;;5.13;4.40;;;22.60;99.90;;;;;;5043195;28;20971;-49
2022/10/16 07:47:46;;;;;;;7.50;5.30;;;22.60;99.90;;;;;;5040377;28;20463;-47
2022/10/16 07:50:13;;;;;;;6.13;5.43;;;22.70;99.90;;;;;;5047070;28;20465;-44
2022/10/16 07:52:40;;;;;;;5.33;4.83;;;22.70;99.90;;;;;;5046362;28;20441;-44
2022/10/16 07:55:07;;;;;;;4.73;4.23;;;22.70;99.90;;;;;;5040807;28;20510;-47
2022/10/16 07:57:35;;;;;;;5.53;4.73;;;22.70;99.90;;;;;;5044866;28;20454;-46
2022/10/16 08:00:02;;;;;;;6.67;5.73;;;22.80;99.90;;;;;;5044070;28;20446;-46
2022/10/16 08:02:29;;;;;;;5.83;4.93;;;22.70;99.90;;;;;;5051851;28;20550;-47
2022/10/16 08:04:56;;;;;;;6.13;4.53;;;22.70;99.90;;;;;;5045893;28;20473;-45
2022/10/16 08:07:23;;;;;;;6.60;4.80;;;22.80;99.90;;;;;;5052437;28;20456;-44
2022/10/16 08:09:51;;;;;;;5.53;4.40;;;22.80;99.90;;;;;;5041993;28;20457;-43
2022/10/16 08:12:18;;;;;;;5.30;4.80;;;22.90;99.90;;;;;;5037305;28;20463;-43
2022/10/16 08:14:46;;;;;;;4.90;4.10;;;22.90;99.90;;;;;;5038232;28;20991;-43
2022/10/16 08:17:15;;;;;;;5.50;4.50;;;22.90;99.90;;;;;;5033648;28;20473;-41
2022/10/16 08:19:45;;;;;;;5.23;4.73;;;22.90;99.90;;;;;;5039494;28;20844;-45
2022/10/16 08:22:12;;;;;;;3.87;3.53;;;23.00;99.90;;;;;;5038920;28;20798;-45
2022/10/16 08:24:39;;;;;;;5.60;3.53;;;22.90;99.90;;;;;;5043454;28;20480;-45
2022/10/16 08:27:06;;;;;;;4.20;3.70;;;22.90;99.90;;;;;;5036632;28;20458;-45
2022/10/16 08:29:33;;;;;;;10.57;4.67;;;22.90;99.90;;;;;;5042017;28;20453;-44
2022/10/16 08:32:01;;;;;;;5.43;4.07;;;23.00;99.90;;;;;;5036771;28;20826;-45
2022/10/16 08:34:28;;;;;;;9.10;4.30;;;23.00;99.90;;;;;;5042552;28;20466;-48
2022/10/16 08:36:55;;;;;;;6.60;4.43;;;23.00;99.90;;;;;;5037246;28;20481;-48
2022/10/16 08:39:21;;;;;;;8.40;4.20;;;23.10;99.90;;;;;;5041609;28;20469;-47
2022/10/16 08:42:12;;;;;;;10.37;4.07;;;23.00;99.90;;;;;;5046243;28;20447;-46
2022/10/16 08:44:58;;;;;;;4.20;3.80;;;23.00;99.90;;;;;;5041902;28;20565;-48
2022/10/16 08:47:36;;;;;;;5.07;4.57;;;23.00;99.90;;;;;;5037188;28;20457;-51
2022/10/16 08:50:09;;;;;;;5.40;4.00;;;23.00;99.90;;;;;;5051775;28;20441;-48
2022/10/16 08:52:40;;;;;;;3.93;3.47;;;23.00;99.90;;;;;;5045772;28;20477;-46
2022/10/16 08:55:15;;;;;;;3.70;3.40;;;23.00;99.90;;;;;;5037214;28;20463;-45
2022/10/16 08:57:42;;;;;;;4.30;4.00;;;22.90;99.90;;;;;;5040745;28;20449;-45
2022/10/16 09:00:14;;;;;;;4.73;4.23;;;23.00;99.90;;;;;;5050138;28;20456;-47
2022/10/16 09:02:51;;;;;;;5.30;3.80;;;23.00;99.90;;;;;;5036189;28;20445;-50
2022/10/16 09:05:27;;;;;;;3.87;3.43;;;23.00;99.90;;;;;;5045460;28;20481;-48
2022/10/16 09:08:02;;;;;;;4.97;3.37;;;23.00;99.90;;;;;;5037627;28;20487;-47
2022/10/16 09:10:40;;;;;;;3.77;3.47;;;23.10;99.90;;;;;;5049085;28;20465;-45
2022/10/16 09:13:18;;;;;;;3.83;3.47;;;23.00;99.90;;;;;;5037542;28;20861;-45
2022/10/16 09:15:50;;;;;;;4.87;3.87;;;23.10;99.90;;;;;;5039675;28;20454;-45
2022/10/16 09:18:25;;;;;;;4.17;3.53;;;23.10;99.90;;;;;;5044381;28;20459;-48
2022/10/16 09:20:58;;;;;;;4.57;3.70;;;23.10;99.90;;;;;;5038058;28;20473;-46
2022/10/16 09:23:28;;;;;;;3.90;2.80;;;23.10;99.90;;;;;;5042883;28;20464;-52
2022/10/16 09:25:56;;;;;;;4.07;3.30;;;23.10;99.90;;;;;;5047954;28;20499;-49
2022/10/16 09:28:23;;;;;;;4.63;4.03;;;23.10;99.90;;;;;;5034541;28;20470;-47
2022/10/16 09:30:51;;;;;;;3.67;3.37;;;23.20;99.90;;;;;;5045099;28;20453;-50
2022/10/16 09:33:24;;;;;;;3.90;3.50;;;23.20;99.90;;;;;;5040791;28;20465;-43
2022/10/16 09:35:52;;;;;;;4.00;3.60;;;23.20;99.90;;;;;;5039321;28;20460;-51
2022/10/16 09:38:24;;;;;;;3.27;2.97;;;23.20;99.90;;;;;;5043402;28;20485;-46
2022/10/16 09:40:51;;;;;;;2.53;2.17;;;23.20;99.90;;;;;;5046595;28;20462;-48
2022/10/16 09:43:23;;;;;;;4.63;2.30;;;23.20;99.90;;;;;;5042279;28;20468;-44
2022/10/16 09:46:01;;;;;;;3.67;2.37;;;23.20;99.90;;;;;;5044618;28;20561;-48
2022/10/16 09:48:35;;;;;;;6.63;3.07;;;23.20;99.90;;;;;;5048495;28;20462;-48
2022/10/16 09:51:05;;;;;;;2.60;2.40;;;23.20;99.90;;;;;;5042853;28;20466;-52
2022/10/16 09:53:42;;;;;;;3.20;2.50;;;23.30;99.90;;;;;;5039282;28;20868;-49
2022/10/16 09:56:13;;;;;;;2.77;2.57;;;23.30;99.90;;;;;;5040378;28;20458;-47
2022/10/16 09:58:43;;;;;;;3.33;2.90;;;23.30;99.90;;;;;;5046273;28;20485;-49
2022/10/16 10:01:14;;;;;;;5.23;2.37;;;23.30;99.90;;;;;;5042500;28;20462;-49
2022/10/16 10:03:44;;;;;;;3.10;2.20;;;23.30;99.90;;;;;;5047700;28;20457;-48
2022/10/16 10:06:22;;;;;;;3.30;2.90;;;23.30;99.90;;;;;;5044958;28;20453;-47
2022/10/16 10:08:57;;;;;;;3.10;2.30;;;23.30;99.90;;;;;;5042107;28;20457;-49
2022/10/16 10:11:42;;;;;;;2.50;2.13;;;23.30;99.90;;;;;;5049276;28;20540;-45
2022/10/16 10:14:18;;;;;;;3.33;2.73;;;23.30;99.90;;;;;;5043569;28;20453;-45
2022/10/16 10:16:45;;;;;;;2.30;2.07;;;23.30;99.90;;;;;;5037983;28;20469;-49
2022/10/16 10:19:17;;;;;;;4.40;3.10;;;23.30;99.90;;;;;;5053200;28;20453;-45
2022/10/16 10:21:44;;;;;;;3.83;2.57;;;23.20;99.90;;;;;;5044539;28;20485;-43
2022/10/16 10:24:12;;;;;;;2.30;2.10;;;23.20;99.90;;;;;;5045844;28;20477;-47
2022/10/16 10:26:42;;;;;;;2.87;2.67;;;23.20;99.90;;;;;;5035007;28;20470;-47
2022/10/16 10:29:19;;;;;;;2.97;2.37;;;23.20;99.90;;;;;;5049704;28;20441;-47
2022/10/16 10:31:55;;;;;;;3.00;2.40;;;23.20;99.90;;;;;;5045699;28;20457;-44
2022/10/16 10:34:39;;;;;;;2.97;2.67;;;23.10;99.90;;;;;;5044184;28;20475;-44
2022/10/16 10:37:26;;;;;;;3.83;2.93;;;23.10;99.90;;;;;;5044308;28;20458;-45
2022/10/16 10:40:00;;;;;;;3.40;2.17;;;23.10;99.90;;;;;;5046410;28;20457;-47
2022/10/16 10:42:32;;;;;;;2.60;2.40;;;23.10;99.90;;;;;;5046858;28;20466;-46
2022/10/16 10:45:17;;;;;;;2.40;2.20;;;23.10;99.90;;;;;;5043027;28;20533;-52
2022/10/16 10:47:55;;;;;;;2.47;2.10;;;23.10;99.90;;;;;;5047980;28;20449;-50
2022/10/16 10:50:27;;;;;;;2.63;2.33;;;23.10;99.90;;;;;;5043577;28;20569;-50
2022/10/16 10:53:12;;;;;;;3.20;2.40;;;23.20;99.90;;;;;;5039592;28;20463;-51
2022/10/16 10:55:44;;;;;;;2.40;2.20;;;23.20;99.90;;;;;;5056499;28;20469;-51
2022/10/16 10:58:44;;;;;;;2.33;2.13;;;23.20;99.90;;;;;;5045526;28;20484;-51
2022/10/16 11:01:14;;;;;;;3.30;2.47;;;23.30;99.90;;;;;;5040331;28;20980;-47
2022/10/16 11:03:58;;;;;;;2.40;2.00;;;23.30;99.90;;;;;;5050747;28;20453;-46
2022/10/16 11:06:31;;;;;;;2.00;1.80;;;23.30;99.90;;;;;;5050163;28;20482;-44
2022/10/16 11:09:03;;;;;;;3.43;2.37;;;23.30;99.90;;;;;;5036976;28;20514;-47
2022/10/16 11:11:35;;;;;;;2.77;2.57;;;23.30;99.90;;;;;;5039979;28;20458;-46
2022/10/16 11:14:07;;;;;;;2.30;1.70;;;23.40;99.90;;;;;;5042530;28;20476;-46
2022/10/16 11:16:39;;;;;;;3.37;2.50;;;23.40;99.90;;;;;;5051750;28;20461;-46
2022/10/16 11:19:14;;;;;;;3.87;2.20;;;23.40;99.90;;;;;;5043303;28;20455;-45
2022/10/16 11:21:50;;;;;;;3.20;1.87;;;23.40;99.90;;;;;;5043165;28;20618;-46
2022/10/16 11:24:23;;;;;;;3.30;1.97;;;23.40;99.90;;;;;;5045313;28;20456;-45
2022/10/16 11:26:52;;;;;;;2.27;1.90;;;23.40;99.90;;;;;;5051796;28;20499;-46
2022/10/16 11:29:30;;;;;;;2.50;1.80;;;23.40;99.90;;;;;;5042254;28;20458;-45
2022/10/16 11:32:02;;;;;;;4.33;1.47;;;23.40;99.90;;;;;;5031980;28;20446;-38
2022/10/16 11:34:34;;;;;;;9.37;1.20;;;22.30;99.30;;;;;;5046295;28;20836;-40
2022/10/16 11:37:07;;;;;;;6.27;2.80;;;21.40;99.90;;;;;;5048417;28;20473;-38
2022/10/16 11:39:34;;;;;;;8.50;5.50;;;21.40;99.90;;;;;;5050162;28;20465;-49
2022/10/16 11:42:05;;;;;;;6.87;5.20;;;21.60;99.90;;;;;;5045471;28;20457;-48
2022/10/16 11:44:44;;;;;;;6.77;4.00;;;21.40;99.90;;;;;;5052278;28;20448;-46
2022/10/16 11:47:24;;;;;;;11.77;8.18;;;21.30;99.90;;;;;;5037971;28;20676;-48
2022/10/16 11:49:57;;;;;;;8.77;3.80;;;21.40;99.90;;;;;;5046458;28;20194;-48
2022/10/16 11:52:31;;;;;;;8.80;6.07;;;21.30;99.90;;;;;;5038185;28;20462;-47
2022/10/16 11:55:03;;;;;;;10.33;5.77;;;21.00;99.90;;;;;;5048069;28;20461;-48
2022/10/16 11:57:34;;;;;;;15.43;8.77;;;21.10;99.90;;;;;;5040200;28;20521;-49
2022/10/16 12:00:05;;;;;;;16.58;8.43;;;20.80;99.90;;;;;;5043795;28;20211;-50
2022/10/16 12:02:41;;;;;;;12.65;6.78;;;21.10;99.90;;;;;;5044363;28;20206;-48
2022/10/16 12:05:19;;;;;;;12.07;6.25;;;21.00;99.90;;;;;;5047689;28;20211;-45
2022/10/16 12:07:58;;;;;;;26.50;18.03;;;20.80;99.90;;;;;;5046960;28;20199;-40
2022/10/16 12:10:31;;;;;;;28.40;20.17;;;21.20;99.90;;;;;;5044451;28;20771;-40
2022/10/16 12:12:58;;;;;;;31.27;19.13;;;21.90;99.90;;;;;;5040996;28;20805;-40
2022/10/16 12:15:27;;;;;;;32.40;21.00;;;22.20;99.90;;;;;;5048346;28;20450;-41
2022/10/16 12:17:54;;;;;;;24.07;20.87;;;22.50;99.90;;;;;;5044382;28;20668;-40
2022/10/16 12:20:25;;;;;;;35.93;22.00;;;22.60;99.90;;;;;;5042862;28;20963;-41
2022/10/16 12:22:56;;;;;;;33.80;21.03;;;22.80;99.90;;;;;;5043765;28;20496;-40
2022/10/16 12:25:25;;;;;;;29.33;21.40;;;23.00;99.90;;;;;;5051139;28;20568;-41
2022/10/16 12:27:57;;;;;;;33.20;24.27;;;23.10;99.90;;;;;;5048187;28;20453;-39
2022/10/16 12:30:26;;;;;;;24.07;20.23;;;23.20;99.90;;;;;;5048040;28;20508;-40
2022/10/16 12:32:57;;;;;;;32.43;21.63;;;23.30;99.90;;;;;;5048593;28;20466;-40
2022/10/16 12:35:28;;;;;;;26.87;20.33;;;23.30;99.90;;;;;;5043209;28;20450;-40
2022/10/16 12:38:06;;;;;;;26.37;21.00;;;23.30;99.90;;;;;;5046061;28;20499;-40
2022/10/16 12:40:36;;;;;;;31.60;21.13;;;23.40;99.90;;;;;;5047002;28;20474;-40
2022/10/16 12:43:13;;;;;;;32.20;22.07;;;23.40;99.90;;;;;;5040504;28;20511;-40
2022/10/16 12:45:40;;;;;;;29.77;22.07;;;23.40;99.90;;;;;;5044333;28;20543;-41
2022/10/16 12:48:20;;;;;;;23.67;19.33;;;23.40;99.90;;;;;;5051221;28;20465;-40
2022/10/16 12:50:47;;;;;;;22.00;19.60;;;23.40;99.90;;;;;;5045077;28;20445;-40
2022/10/16 12:53:23;;;;;;;28.30;19.90;;;23.40;99.90;;;;;;5040040;28;20458;-40
2022/10/16 12:56:00;;;;;;;29.37;20.23;;;23.40;99.90;;;;;;5043727;28;20473;-40
2022/10/16 12:58:53;;;;;;;30.23;21.00;;;23.40;99.90;;;;;;5051449;28;20450;-41